sim
Sign-in with your pilot id or email,
or register
Callsign
Passwort

Schedule Details

Flight Number: RYR3094 (2)
Departure: Paris Beauvais-Tille Airport (LFOB) at 10:55
Arrival: Thessaloniki International Airport (LGTS) at 13:45
Route: Ryanair Passenger Schedule. Enter filed route here before submitting Pirep.

Weather Information
Getting current METAR information for LFOB 211100Z AUTO VRB02KT 7000 NSC 10/08 Q1028 NOSIG
Getting current METAR information for LGTS 211120Z 33019KT CAVOK 16/M01 Q1023 NOSIG

Schedule Frequency

Route Map